createdAt,value
2022-08-26T00:00:57.642Z,11.27
2022-08-26T00:03:23.588Z,6.35
2022-08-26T00:05:50.380Z,4.32
2022-08-26T00:08:19.135Z,6.80
2022-08-26T00:10:45.347Z,5.80
2022-08-26T00:13:11.387Z,5.03
2022-08-26T00:15:38.013Z,5.00
2022-08-26T00:18:04.486Z,5.25
2022-08-26T00:20:42.816Z,5.13
2022-08-26T00:23:09.007Z,8.40
2022-08-26T00:25:35.625Z,5.22
2022-08-26T00:28:09.130Z,5.05
2022-08-26T00:30:37.143Z,5.78
2022-08-26T00:33:05.288Z,5.28
2022-08-26T00:35:32.261Z,5.28
2022-08-26T00:38:00.873Z,6.85
2022-08-26T00:40:34.721Z,7.07
2022-08-26T00:43:02.349Z,6.78
2022-08-26T00:46:04.126Z,7.65
2022-08-26T00:48:34.960Z,7.40
2022-08-26T00:51:11.101Z,8.80
2022-08-26T00:53:44.970Z,9.85
2022-08-26T00:57:00.382Z,6.97
2022-08-26T00:59:28.431Z,7.18
2022-08-26T01:01:56.102Z,6.95
2022-08-26T01:04:23.670Z,9.25
2022-08-26T01:06:53.753Z,9.25
2022-08-26T01:09:21.595Z,6.68
2022-08-26T01:11:49.756Z,8.90
2022-08-26T01:14:16.956Z,7.75
2022-08-26T01:16:45.181Z,6.40
2022-08-26T01:19:26.220Z,10.18
2022-08-26T01:21:58.731Z,6.03
2022-08-26T01:24:26.917Z,9.70
2022-08-26T01:26:59.770Z,9.98
2022-08-26T01:29:27.287Z,9.05
2022-08-26T01:31:55.905Z,9.05
2022-08-26T01:34:36.974Z,8.32
2022-08-26T01:37:16.095Z,9.25
2022-08-26T01:39:44.066Z,9.32
2022-08-26T01:42:13.865Z,10.77
2022-08-26T01:44:44.334Z,7.80
2022-08-26T01:47:12.861Z,8.05
2022-08-26T01:49:40.333Z,11.07
2022-08-26T01:52:09.395Z,12.88
2022-08-26T01:54:36.877Z,7.85
2022-08-26T01:57:04.651Z,10.85
2022-08-26T01:59:30.795Z,11.05
2022-08-26T02:01:57.220Z,8.50
2022-08-26T02:04:32.375Z,8.55
2022-08-26T02:09:27.640Z,10.30
2022-08-26T02:11:53.985Z,9.57
2022-08-26T02:14:28.523Z,8.25
2022-08-26T02:16:55.424Z,10.20
2022-08-26T02:19:28.573Z,7.78
2022-08-26T02:21:57.242Z,6.50
2022-08-26T02:24:27.541Z,10.52
2022-08-26T02:26:55.106Z,6.53
2022-08-26T02:29:43.886Z,10.82
2022-08-26T02:32:10.450Z,7.22
2022-08-26T02:34:37.279Z,9.50
2022-08-26T02:37:07.567Z,11.73
2022-08-26T02:39:36.256Z,9.15
2022-08-26T02:42:04.518Z,5.30
2022-08-26T02:44:31.126Z,12.80
2022-08-26T02:46:59.762Z,8.98
2022-08-26T02:49:27.565Z,10.00
2022-08-26T02:51:53.581Z,7.90
2022-08-26T02:54:23.278Z,10.25
2022-08-26T02:56:50.586Z,12.25
2022-08-26T02:59:17.240Z,7.13
2022-08-26T03:01:44.445Z,8.98
2022-08-26T03:04:12.149Z,5.88
2022-08-26T03:06:38.686Z,8.60
2022-08-26T03:09:06.912Z,14.05
2022-08-26T03:11:33.731Z,7.72
2022-08-26T03:14:00.320Z,6.90
2022-08-26T03:16:32.252Z,7.93
2022-08-26T03:18:59.254Z,5.15
2022-08-26T03:21:25.179Z,7.75
2022-08-26T03:23:51.005Z,7.25
2022-08-26T03:26:16.853Z,9.25
2022-08-26T03:29:00.950Z,8.32
2022-08-26T03:31:28.771Z,4.97
2022-08-26T03:33:59.129Z,4.75
2022-08-26T03:36:26.039Z,6.97
2022-08-26T03:38:51.850Z,8.77
2022-08-26T03:41:17.721Z,5.75
2022-08-26T03:43:44.250Z,7.57
2022-08-26T03:46:11.593Z,6.07
2022-08-26T03:48:38.931Z,10.18
2022-08-26T03:51:11.815Z,5.72
2022-08-26T03:53:37.640Z,7.25
2022-08-26T03:56:05.831Z,9.00
2022-08-26T03:58:32.415Z,7.20
2022-08-26T04:00:58.596Z,7.60
2022-08-26T04:03:52.454Z,12.02
2022-08-26T04:06:18.349Z,13.55
2022-08-26T04:08:44.464Z,15.70
2022-08-26T04:11:17.614Z,16.00
2022-08-26T04:13:43.509Z,16.30
2022-08-26T04:16:09.285Z,14.70
2022-08-26T04:18:37.524Z,18.77
2022-08-26T04:21:12.349Z,15.80
2022-08-26T04:23:47.625Z,16.85
2022-08-26T04:26:14.520Z,16.05
2022-08-26T04:28:40.318Z,19.40
2022-08-26T04:31:10.414Z,16.10
2022-08-26T04:33:36.285Z,17.17
2022-08-26T04:36:08.484Z,16.02
2022-08-26T04:38:34.558Z,22.52
2022-08-26T04:41:00.763Z,16.70
2022-08-26T04:43:29.906Z,22.50
2022-08-26T04:45:59.167Z,20.42
2022-08-26T04:48:26.741Z,20.52
2022-08-26T04:50:52.715Z,20.60
2022-08-26T04:53:18.904Z,23.05
2022-08-26T04:55:45.157Z,22.25
2022-08-26T04:58:14.286Z,28.63
2022-08-26T05:00:40.146Z,28.00
2022-08-26T05:03:07.590Z,29.52
2022-08-26T05:05:41.672Z,28.23
2022-08-26T05:08:12.162Z,29.80
2022-08-26T05:10:43.594Z,35.88
2022-08-26T05:13:11.238Z,29.35
2022-08-26T05:15:38.556Z,33.78
2022-08-26T05:18:06.327Z,32.33
2022-08-26T05:20:42.674Z,33.03
2022-08-26T05:23:08.669Z,34.42
2022-08-26T05:25:39.788Z,36.13
2022-08-26T05:28:05.994Z,35.67
2022-08-26T05:30:31.966Z,36.10
2022-08-26T05:32:58.441Z,34.88
2022-08-26T05:35:28.332Z,35.90
2022-08-26T05:37:58.395Z,34.45
2022-08-26T05:40:24.912Z,33.28
2022-08-26T05:42:52.244Z,44.80
2022-08-26T05:45:19.530Z,38.55
2022-08-26T05:47:45.653Z,35.97
2022-08-26T05:50:12.797Z,36.47
2022-08-26T05:52:38.646Z,38.58
2022-08-26T05:55:05.041Z,34.38
2022-08-26T05:57:32.218Z,33.70
2022-08-26T05:59:58.106Z,34.55
2022-08-26T06:02:23.970Z,33.42
2022-08-26T06:04:50.061Z,33.33
2022-08-26T06:07:37.658Z,33.28
2022-08-26T06:10:30.927Z,32.65
2022-08-26T06:12:52.120Z,34.13
2022-08-26T06:15:17.975Z,36.92
2022-08-26T06:17:45.205Z,42.75
2022-08-26T06:20:11.510Z,41.70
2022-08-26T06:22:56.373Z,39.35
2022-08-26T06:25:37.295Z,41.50
2022-08-26T06:28:04.518Z,37.97
2022-08-26T06:30:31.941Z,44.33
2022-08-26T06:33:00.230Z,50.72
2022-08-26T06:35:26.283Z,51.00
2022-08-26T06:37:52.081Z,52.88
2022-08-26T06:40:18.126Z,51.72
2022-08-26T06:42:45.100Z,52.45
2022-08-26T06:45:11.213Z,52.65
2022-08-26T06:47:37.329Z,61.42
2022-08-26T06:50:03.257Z,74.38
2022-08-26T06:52:29.064Z,66.10
2022-08-26T06:54:55.099Z,63.97
2022-08-26T06:57:20.976Z,74.03
2022-08-26T06:59:47.418Z,79.15
2022-08-26T07:02:17.038Z,72.15
2022-08-26T07:04:43.714Z,72.13
2022-08-26T07:07:14.615Z,72.53
2022-08-26T07:09:40.479Z,80.80
2022-08-26T07:12:06.797Z,76.35
2022-08-26T07:14:34.410Z,67.35
2022-08-26T07:17:01.149Z,80.32
2022-08-26T07:19:30.545Z,68.53
2022-08-26T07:21:58.628Z,80.20
2022-08-26T07:24:24.470Z,72.15
2022-08-26T07:26:58.487Z,73.13
2022-08-26T07:29:24.709Z,74.78
2022-08-26T07:31:51.469Z,75.47
2022-08-26T07:34:17.334Z,78.35
2022-08-26T07:36:43.849Z,81.25
2022-08-26T07:39:09.620Z,82.72
2022-08-26T07:41:35.855Z,79.15
2022-08-26T07:44:02.186Z,80.82
2022-08-26T07:46:30.559Z,74.63
2022-08-26T07:48:57.633Z,71.80
2022-08-26T07:51:24.126Z,75.40
2022-08-26T07:53:52.465Z,77.25
2022-08-26T07:56:19.653Z,75.72
2022-08-26T07:58:50.491Z,67.60
2022-08-26T08:01:22.997Z,73.60
2022-08-26T08:03:52.544Z,77.63
2022-08-26T08:06:27.235Z,74.63
2022-08-26T08:08:55.035Z,77.70
2022-08-26T08:11:21.244Z,71.32
2022-08-26T08:13:47.883Z,73.55
2022-08-26T08:16:14.919Z,84.47
2022-08-26T08:18:40.817Z,71.53
2022-08-26T08:21:22.156Z,72.85
2022-08-26T08:23:55.118Z,67.57
2022-08-26T08:26:23.190Z,71.15
2022-08-26T08:28:49.285Z,70.55
2022-08-26T08:31:38.983Z,63.30
2022-08-26T08:34:09.351Z,68.32
2022-08-26T08:36:35.889Z,64.70
2022-08-26T08:39:02.390Z,59.17
2022-08-26T08:41:40.835Z,60.78
2022-08-26T08:44:15.221Z,53.28
2022-08-26T08:46:42.190Z,59.60
2022-08-26T08:49:10.345Z,63.17
2022-08-26T08:51:51.440Z,63.35
2022-08-26T08:54:18.900Z,59.85
2022-08-26T08:57:00.994Z,60.85
2022-08-26T08:59:32.808Z,55.50
2022-08-26T09:02:08.862Z,56.08
2022-08-26T09:04:51.192Z,66.00
2022-08-26T09:07:50.184Z,61.33
2022-08-26T09:10:22.584Z,61.05
2022-08-26T09:12:50.003Z,63.35
2022-08-26T09:15:21.752Z,58.60
2022-08-26T09:18:11.688Z,57.20
2022-08-26T09:20:48.783Z,69.25
2022-08-26T09:23:15.735Z,65.80
2022-08-26T09:26:20.042Z,65.82
2022-08-26T09:29:01.459Z,64.95
2022-08-26T09:31:35.545Z,56.00
2022-08-26T09:34:17.313Z,60.22
2022-08-26T09:36:52.802Z,59.95
2022-08-26T09:42:08.275Z,68.65
2022-08-26T09:45:03.283Z,60.65
2022-08-26T09:47:37.805Z,55.42
2022-08-26T09:50:13.695Z,57.90
2022-08-26T09:52:40.536Z,57.45
2022-08-26T09:55:23.023Z,52.10
2022-08-26T09:57:54.414Z,50.25
2022-08-26T10:00:38.603Z,50.38
2022-08-26T10:03:23.342Z,45.08
2022-08-26T10:06:03.538Z,48.85
2022-08-26T10:08:44.086Z,46.42
2022-08-26T10:11:28.303Z,42.00
2022-08-26T10:13:59.980Z,42.92
2022-08-26T10:16:44.714Z,38.42
2022-08-26T10:19:16.154Z,35.80
2022-08-26T10:21:52.261Z,35.03
2022-08-26T10:24:30.294Z,35.03
2022-08-26T10:27:01.757Z,31.58
2022-08-26T10:29:50.090Z,30.40
2022-08-26T10:32:41.347Z,26.33
2022-08-26T10:35:11.724Z,33.33
2022-08-26T10:38:08.457Z,31.77
2022-08-26T10:41:00.835Z,30.90
2022-08-26T10:43:35.204Z,34.22
2022-08-26T10:46:13.686Z,29.67
2022-08-26T10:48:48.473Z,29.52
2022-08-26T10:54:10.264Z,29.83
2022-08-26T10:56:54.870Z,26.40
2022-08-26T10:59:39.112Z,27.58
2022-08-26T11:02:25.273Z,29.73
2022-08-26T11:05:02.669Z,29.73
2022-08-26T11:07:46.288Z,30.35
2022-08-26T11:10:21.804Z,25.75
2022-08-26T11:12:51.346Z,29.45
2022-08-26T11:15:19.297Z,22.48
2022-08-26T11:17:50.544Z,22.13
2022-08-26T11:20:41.846Z,23.88
2022-08-26T11:23:30.983Z,20.42
2022-08-26T11:26:08.725Z,21.33
2022-08-26T11:28:40.339Z,24.40
2022-08-26T11:31:25.831Z,24.58
2022-08-26T11:33:56.617Z,22.95
2022-08-26T11:36:28.678Z,21.30
2022-08-26T11:38:54.503Z,23.17
2022-08-26T11:41:23.624Z,23.15
2022-08-26T11:43:51.473Z,22.60
2022-08-26T11:46:26.103Z,27.85
2022-08-26T11:49:04.530Z,23.45
2022-08-26T11:51:31.287Z,23.10
2022-08-26T11:54:15.881Z,22.20
2022-08-26T11:56:43.830Z,23.17
2022-08-26T11:59:14.777Z,21.65
2022-08-26T12:01:48.314Z,20.35
2022-08-26T12:04:27.927Z,24.30
2022-08-26T12:06:54.995Z,21.67
2022-08-26T12:09:24.267Z,21.52
2022-08-26T12:11:50.154Z,22.48
2022-08-26T12:14:20.011Z,19.92
2022-08-26T12:16:46.606Z,20.73
2022-08-26T12:19:29.294Z,22.38
2022-08-26T12:22:04.240Z,21.70
2022-08-26T12:24:30.441Z,19.30
2022-08-26T12:27:15.033Z,19.05
2022-08-26T12:29:41.096Z,22.80
2022-08-26T12:32:17.510Z,20.95
2022-08-26T12:34:46.482Z,20.40
2022-08-26T12:37:13.453Z,22.75
2022-08-26T12:39:43.639Z,21.90
2022-08-26T12:42:12.237Z,24.33
2022-08-26T12:44:53.965Z,27.05
2022-08-26T12:47:42.052Z,25.13
2022-08-26T12:50:12.204Z,22.65
2022-08-26T12:53:08.928Z,23.83
2022-08-26T12:55:55.966Z,25.73
2022-08-26T12:58:34.000Z,23.30
2022-08-26T13:01:05.975Z,23.00
2022-08-26T13:03:36.284Z,22.15
2022-08-26T13:06:23.225Z,20.60
2022-08-26T13:08:59.140Z,21.42
2022-08-26T13:11:28.364Z,20.48
2022-08-26T13:14:00.625Z,20.15
2022-08-26T13:16:28.571Z,22.25
2022-08-26T13:18:57.346Z,19.65
2022-08-26T13:21:26.708Z,20.35
2022-08-26T13:23:53.314Z,19.13
2022-08-26T13:26:19.971Z,22.88
2022-08-26T13:28:53.276Z,20.02
2022-08-26T13:31:30.208Z,19.65
2022-08-26T13:33:56.688Z,19.95
2022-08-26T13:36:22.749Z,22.70
2022-08-26T13:38:48.641Z,23.33
2022-08-26T13:41:18.501Z,29.23
2022-08-26T13:43:54.878Z,26.67
2022-08-26T13:46:20.755Z,24.73
2022-08-26T13:48:46.709Z,26.50
2022-08-26T13:51:12.728Z,24.42
2022-08-26T13:53:38.525Z,29.73
2022-08-26T13:56:10.856Z,26.30
2022-08-26T13:58:36.987Z,24.55
2022-08-26T14:01:02.951Z,27.35
2022-08-26T14:03:28.851Z,23.08
2022-08-26T14:05:55.173Z,21.60
2022-08-26T14:08:21.585Z,25.30
2022-08-26T14:13:15.022Z,21.55
2022-08-26T14:15:41.203Z,23.40
2022-08-26T14:18:09.303Z,21.45
2022-08-26T14:20:36.628Z,23.65
2022-08-26T14:23:13.643Z,23.02
2022-08-26T14:25:40.263Z,20.90
2022-08-26T14:28:06.072Z,17.27
2022-08-26T14:30:32.003Z,17.27
2022-08-26T14:33:01.193Z,16.58
2022-08-26T14:35:30.048Z,18.42
2022-08-26T14:37:56.642Z,14.52
2022-08-26T14:40:26.434Z,15.27
2022-08-26T14:42:54.031Z,13.15
2022-08-26T14:45:23.547Z,16.88
2022-08-26T14:47:51.603Z,14.45
2022-08-26T14:50:24.278Z,15.50
2022-08-26T14:53:09.644Z,21.23
2022-08-26T14:58:03.840Z,14.15
2022-08-26T15:00:30.265Z,16.45
2022-08-26T15:02:57.591Z,17.23
2022-08-26T15:05:24.367Z,15.13
2022-08-26T15:07:50.177Z,12.23
2022-08-26T15:10:17.247Z,16.17
2022-08-26T15:12:44.066Z,19.42
2022-08-26T15:15:12.211Z,19.77
2022-08-26T15:17:39.406Z,17.83
2022-08-26T15:20:09.642Z,16.48
2022-08-26T15:22:37.397Z,14.00
2022-08-26T15:25:04.884Z,17.30
2022-08-26T15:27:31.462Z,17.17
2022-08-26T15:29:57.634Z,15.30
2022-08-26T15:32:23.574Z,19.23
2022-08-26T15:34:49.999Z,15.60
2022-08-26T15:37:16.233Z,14.57
2022-08-26T15:39:42.475Z,15.10
2022-08-26T15:42:08.308Z,18.45
2022-08-26T15:44:35.870Z,21.95
2022-08-26T15:47:01.920Z,11.43
2022-08-26T15:49:27.893Z,14.20
2022-08-26T15:51:54.264Z,18.83
2022-08-26T15:54:22.433Z,16.25
2022-08-26T15:56:50.952Z,12.77
2022-08-26T15:59:18.036Z,16.92
2022-08-26T16:01:44.970Z,15.48
2022-08-26T16:04:11.686Z,17.30
2022-08-26T16:06:39.693Z,15.20
2022-08-26T16:09:06.894Z,13.13
2022-08-26T16:11:35.223Z,13.85
2022-08-26T16:14:01.719Z,11.88
2022-08-26T16:16:27.689Z,13.50
2022-08-26T16:18:54.001Z,13.13
2022-08-26T16:21:23.691Z,13.88
2022-08-26T16:23:50.216Z,11.18
2022-08-26T16:26:19.762Z,15.18
2022-08-26T16:28:46.629Z,11.30
2022-08-26T16:31:13.157Z,10.85
2022-08-26T16:33:39.958Z,13.38
2022-08-26T16:36:06.797Z,11.75
2022-08-26T16:38:33.644Z,10.80
2022-08-26T16:41:00.438Z,12.10
2022-08-26T16:43:26.645Z,14.25
2022-08-26T16:45:52.545Z,11.23
2022-08-26T16:48:18.852Z,9.63
2022-08-26T16:50:44.781Z,9.32
2022-08-26T16:55:48.836Z,12.00
2022-08-26T16:58:16.020Z,9.55
2022-08-26T17:00:42.145Z,10.98
2022-08-26T17:03:08.712Z,11.10
2022-08-26T17:05:35.568Z,8.75
2022-08-26T17:08:01.594Z,10.52
2022-08-26T17:10:29.336Z,10.35
2022-08-26T17:12:55.765Z,8.63
2022-08-26T17:15:25.162Z,12.85
2022-08-26T17:17:52.453Z,11.45
2022-08-26T17:20:19.291Z,8.90
2022-08-26T17:22:47.061Z,11.30
2022-08-26T17:25:23.429Z,7.15
2022-08-26T17:27:49.557Z,17.83
2022-08-26T17:30:16.907Z,11.20
2022-08-26T17:32:43.421Z,8.98
2022-08-26T17:35:11.547Z,10.40
2022-08-26T17:37:39.948Z,8.75
2022-08-26T17:40:09.019Z,11.35
2022-08-26T17:42:37.420Z,7.47
2022-08-26T17:45:03.633Z,13.63
2022-08-26T17:47:29.413Z,9.18
2022-08-26T17:49:55.401Z,6.88
2022-08-26T17:52:21.338Z,11.18
2022-08-26T17:54:47.206Z,9.70
2022-08-26T17:57:13.091Z,12.00
2022-08-26T17:59:38.986Z,9.13
2022-08-26T18:02:06.903Z,6.35
2022-08-26T18:04:32.796Z,10.55
2022-08-26T18:06:58.758Z,8.18
2022-08-26T18:09:24.689Z,11.00
2022-08-26T18:11:50.547Z,10.52
2022-08-26T18:14:16.401Z,15.98
2022-08-26T18:16:42.293Z,8.73
2022-08-26T18:19:08.242Z,11.63
2022-08-26T18:21:35.497Z,10.32
2022-08-26T18:24:01.864Z,11.23
2022-08-26T18:26:32.510Z,12.02
2022-08-26T18:28:59.555Z,8.75
2022-08-26T18:31:26.147Z,12.23
2022-08-26T18:33:52.551Z,10.02
2022-08-26T18:36:21.396Z,10.98
2022-08-26T18:38:50.473Z,13.98
2022-08-26T18:41:19.855Z,10.30
2022-08-26T18:43:46.212Z,9.57
2022-08-26T18:46:12.139Z,12.43
2022-08-26T18:48:39.863Z,10.30
2022-08-26T18:51:06.451Z,12.13
2022-08-26T18:53:33.688Z,11.82
2022-08-26T18:56:00.413Z,11.65
2022-08-26T18:58:26.520Z,10.32
2022-08-26T19:00:54.105Z,15.02
2022-08-26T19:03:19.922Z,11.20
2022-08-26T19:05:45.801Z,11.48
2022-08-26T19:08:11.718Z,11.77
2022-08-26T19:10:38.737Z,14.25
2022-08-26T19:13:06.639Z,10.32
2022-08-26T19:15:40.773Z,14.27
2022-08-26T19:18:07.842Z,13.32
2022-08-26T19:20:36.850Z,16.52
2022-08-26T19:23:10.554Z,12.25
2022-08-26T19:25:50.825Z,13.75
2022-08-26T19:28:20.371Z,13.15
2022-08-26T19:30:52.533Z,17.80
2022-08-26T19:33:19.236Z,10.82
2022-08-26T19:35:45.462Z,16.73
2022-08-26T19:38:11.365Z,12.63
2022-08-26T19:40:38.436Z,12.13
2022-08-26T19:43:05.144Z,15.65
2022-08-26T19:45:31.817Z,14.32
2022-08-26T19:47:58.054Z,17.77
2022-08-26T19:50:26.907Z,9.13
2022-08-26T19:52:53.390Z,11.52
2022-08-26T19:55:21.723Z,11.50
2022-08-26T19:57:49.447Z,12.40
2022-08-26T20:00:17.666Z,12.57
2022-08-26T20:02:43.942Z,9.75
2022-08-26T20:05:11.847Z,11.15
2022-08-26T20:07:38.516Z,7.90
2022-08-26T20:10:06.966Z,11.75
2022-08-26T20:12:34.859Z,15.10
2022-08-26T20:15:04.353Z,11.13
2022-08-26T20:17:31.302Z,11.15
2022-08-26T20:20:28.493Z,7.90
2022-08-26T20:23:00.943Z,10.35
2022-08-26T20:25:26.794Z,8.13
2022-08-26T20:27:52.625Z,11.45
2022-08-26T20:30:18.570Z,8.15
2022-08-26T20:32:44.428Z,9.60
2022-08-26T20:35:13.114Z,13.65
2022-08-26T20:37:40.426Z,9.95
2022-08-26T20:40:08.580Z,11.60
2022-08-26T20:42:35.201Z,10.20
2022-08-26T20:45:01.957Z,10.27
2022-08-26T20:47:27.984Z,10.35
2022-08-26T20:49:55.193Z,7.13
2022-08-26T20:52:20.996Z,6.05
2022-08-26T20:54:46.887Z,7.05
2022-08-26T20:57:13.830Z,9.73
2022-08-26T20:59:40.002Z,6.45
2022-08-26T21:02:06.863Z,9.65
2022-08-26T21:04:32.736Z,8.27
2022-08-26T21:06:58.657Z,7.88
2022-08-26T21:09:26.655Z,10.18
2022-08-26T21:11:53.060Z,5.93
2022-08-26T21:14:19.849Z,6.50
2022-08-26T21:16:46.399Z,5.47
2022-08-26T21:19:14.531Z,8.63
2022-08-26T21:21:41.074Z,8.77
2022-08-26T21:24:07.638Z,7.47
2022-08-26T21:26:33.583Z,7.47
2022-08-26T21:29:00.382Z,4.35
2022-08-26T21:31:26.410Z,9.63
2022-08-26T21:33:52.470Z,7.38
2022-08-26T21:36:19.139Z,12.23
2022-08-26T21:38:45.392Z,6.60
2022-08-26T21:41:14.681Z,8.63
2022-08-26T21:43:42.005Z,8.60
2022-08-26T21:46:13.683Z,5.93
2022-08-26T21:48:48.826Z,9.00
2022-08-26T21:51:19.336Z,8.23
2022-08-26T21:53:45.794Z,10.63
2022-08-26T21:56:14.412Z,8.68
2022-08-26T21:58:40.526Z,9.23
2022-08-26T22:01:13.269Z,8.98
2022-08-26T22:03:47.679Z,8.50
2022-08-26T22:06:16.686Z,8.48
2022-08-26T22:08:42.880Z,9.82
2022-08-26T22:11:09.640Z,9.82
2022-08-26T22:13:37.939Z,13.77
2022-08-26T22:16:05.322Z,9.63
2022-08-26T22:18:33.540Z,8.52
2022-08-26T22:21:04.639Z,6.25
2022-08-26T22:23:31.106Z,10.13
2022-08-26T22:25:58.084Z,9.02
2022-08-26T22:28:24.170Z,6.22
2022-08-26T22:30:50.154Z,7.72
2022-08-26T22:33:16.732Z,10.45
2022-08-26T22:35:45.779Z,7.43
2022-08-26T22:38:11.957Z,7.47
2022-08-26T22:40:45.862Z,7.43
2022-08-26T22:43:12.341Z,11.57
2022-08-26T22:45:47.098Z,6.55
2022-08-26T22:48:15.782Z,6.35
2022-08-26T22:50:43.537Z,8.57
2022-08-26T22:53:09.669Z,10.13
2022-08-26T22:55:36.780Z,16.50
2022-08-26T22:58:03.098Z,8.35
2022-08-26T23:00:32.122Z,9.40
2022-08-26T23:02:59.839Z,9.10
2022-08-26T23:05:25.769Z,7.53
2022-08-26T23:07:51.762Z,9.25
2022-08-26T23:10:17.639Z,12.57
2022-08-26T23:12:43.437Z,11.55
2022-08-26T23:15:11.638Z,10.00
2022-08-26T23:17:38.357Z,15.30
2022-08-26T23:20:09.256Z,15.45
2022-08-26T23:22:35.997Z,13.70
2022-08-26T23:25:02.611Z,14.65
2022-08-26T23:27:34.856Z,15.35
2022-08-26T23:30:00.877Z,17.90
2022-08-26T23:32:26.759Z,15.68
2022-08-26T23:34:55.091Z,17.88
2022-08-26T23:37:31.362Z,19.20
2022-08-26T23:39:58.111Z,14.85
2022-08-26T23:42:24.029Z,17.52
2022-08-26T23:44:50.026Z,18.35
2022-08-26T23:47:17.524Z,17.95
2022-08-26T23:49:43.490Z,20.90
2022-08-26T23:52:27.993Z,20.90
2022-08-26T23:54:53.983Z,18.30
2022-08-26T23:57:22.714Z,18.33
2022-08-26T23:59:48.950Z,17.27
